createdAt,value
2022-12-29T00:01:07.386Z,31.88
2022-12-29T00:03:14.714Z,30.80
2022-12-29T00:05:21.695Z,35.38
2022-12-29T00:07:30.633Z,30.40
2022-12-29T00:09:38.419Z,28.20
2022-12-29T00:11:46.104Z,30.95
2022-12-29T00:14:11.107Z,31.42
2022-12-29T00:16:17.065Z,33.72
2022-12-29T00:18:23.989Z,30.63
2022-12-29T00:20:47.452Z,35.25
2022-12-29T00:23:12.548Z,32.67
2022-12-29T00:25:36.420Z,37.30
2022-12-29T00:28:06.392Z,35.08
2022-12-29T00:30:33.435Z,38.55
2022-12-29T00:32:57.203Z,32.38
2022-12-29T00:35:13.702Z,37.97
2022-12-29T00:37:41.267Z,38.03
2022-12-29T00:40:06.161Z,39.28
2022-12-29T00:42:36.382Z,37.08
2022-12-29T00:44:44.279Z,39.40
2022-12-29T00:46:51.336Z,44.28
2022-12-29T00:49:15.902Z,44.38
2022-12-29T00:51:25.024Z,38.30
2022-12-29T00:53:32.373Z,56.90
2022-12-29T00:55:43.328Z,58.72
2022-12-29T00:57:50.512Z,63.42
2022-12-29T00:59:57.385Z,53.05
2022-12-29T01:02:04.680Z,57.80
2022-12-29T01:04:12.788Z,51.38
2022-12-29T01:06:19.914Z,51.92
2022-12-29T01:08:26.878Z,52.63
2022-12-29T01:10:32.790Z,47.22
2022-12-29T01:12:46.720Z,35.85
2022-12-29T01:14:53.869Z,34.92
2022-12-29T01:17:01.558Z,42.05
2022-12-29T01:19:09.187Z,40.30
2022-12-29T01:21:16.574Z,39.20
2022-12-29T01:23:24.216Z,30.33
2022-12-29T01:25:31.253Z,32.25
2022-12-29T01:27:41.142Z,35.25
2022-12-29T01:29:48.173Z,31.05
2022-12-29T01:31:55.386Z,29.83
2022-12-29T01:34:03.045Z,26.92
2022-12-29T01:36:11.965Z,20.98
2022-12-29T01:38:18.994Z,14.32
2022-12-29T01:40:26.328Z,15.27
2022-12-29T01:42:33.206Z,18.00
2022-12-29T01:45:04.233Z,12.45
2022-12-29T01:47:12.950Z,17.02
2022-12-29T01:49:23.328Z,23.58
2022-12-29T01:51:31.844Z,21.65
2022-12-29T01:53:40.558Z,22.55
2022-12-29T01:55:52.235Z,21.05
2022-12-29T01:58:02.441Z,24.80
2022-12-29T02:00:16.019Z,18.88
2022-12-29T02:02:32.442Z,19.85
2022-12-29T02:04:46.201Z,19.90
2022-12-29T02:07:01.371Z,17.65
2022-12-29T02:09:09.217Z,15.13
2022-12-29T02:11:16.659Z,19.90
2022-12-29T02:13:24.367Z,17.92
2022-12-29T02:15:40.086Z,14.77
2022-12-29T02:17:59.755Z,17.70
2022-12-29T02:20:56.300Z,13.30
2022-12-29T02:23:23.291Z,21.88
2022-12-29T02:26:02.422Z,15.23
2022-12-29T02:28:37.765Z,12.27
2022-12-29T02:30:58.306Z,13.75
2022-12-29T02:33:17.469Z,14.38
2022-12-29T02:35:34.736Z,14.85
2022-12-29T02:37:53.912Z,11.95
2022-12-29T02:40:10.091Z,13.55
2022-12-29T02:42:26.487Z,15.82
2022-12-29T02:44:41.913Z,19.20
2022-12-29T02:46:55.767Z,16.05
2022-12-29T02:49:13.380Z,16.13
2022-12-29T02:51:25.577Z,15.60
2022-12-29T02:53:51.654Z,13.35
2022-12-29T02:55:59.241Z,13.80
2022-12-29T02:58:21.750Z,13.25
2022-12-29T03:00:30.097Z,11.02
2022-12-29T03:03:13.991Z,10.93
2022-12-29T03:05:37.817Z,12.15
2022-12-29T03:07:51.898Z,12.90
2022-12-29T03:10:07.543Z,10.20
2022-12-29T03:12:23.873Z,10.85
2022-12-29T03:14:52.909Z,9.32
2022-12-29T03:17:06.166Z,9.35
2022-12-29T03:19:23.818Z,12.20
2022-12-29T03:21:54.811Z,9.95
2022-12-29T03:24:02.494Z,10.27
2022-12-29T03:26:15.159Z,8.88
2022-12-29T03:28:26.958Z,11.70
2022-12-29T03:30:36.774Z,11.98
2022-12-29T03:32:48.943Z,10.05
2022-12-29T03:37:10.836Z,8.98
2022-12-29T03:39:18.577Z,10.95
2022-12-29T03:41:29.944Z,10.65
2022-12-29T03:43:38.779Z,13.93
2022-12-29T03:45:46.392Z,12.07
2022-12-29T03:47:53.552Z,10.35
2022-12-29T03:50:02.535Z,11.00
2022-12-29T03:52:13.699Z,10.18
2022-12-29T03:54:24.567Z,10.50
2022-12-29T03:56:33.494Z,8.70
2022-12-29T03:58:42.316Z,10.35
2022-12-29T04:00:53.841Z,9.30
2022-12-29T04:03:01.242Z,13.05
2022-12-29T04:05:10.816Z,13.57
2022-12-29T04:07:18.355Z,10.60
2022-12-29T04:09:25.249Z,10.88
2022-12-29T04:11:34.577Z,12.60
2022-12-29T04:13:44.115Z,11.80
2022-12-29T04:15:55.170Z,10.48
2022-12-29T04:18:03.020Z,11.80
2022-12-29T04:20:29.596Z,9.15
2022-12-29T04:22:38.119Z,9.75
2022-12-29T04:24:45.514Z,13.57
2022-12-29T04:26:54.735Z,12.65
2022-12-29T04:29:27.424Z,11.55
2022-12-29T04:32:00.155Z,9.95
2022-12-29T04:34:09.575Z,8.98
2022-12-29T04:36:18.553Z,8.35
2022-12-29T04:38:27.275Z,9.73
2022-12-29T04:40:34.913Z,10.75
2022-12-29T04:42:42.301Z,7.35
2022-12-29T04:44:49.430Z,10.88
2022-12-29T04:47:22.939Z,12.65
2022-12-29T04:49:36.527Z,13.18
2022-12-29T04:52:23.445Z,10.23
2022-12-29T04:54:31.629Z,14.13
2022-12-29T04:56:50.031Z,9.65
2022-12-29T04:58:57.875Z,11.95
2022-12-29T05:01:05.369Z,8.10
2022-12-29T05:03:12.477Z,9.95
2022-12-29T05:05:22.186Z,9.18
2022-12-29T05:07:32.845Z,8.93
2022-12-29T05:09:41.502Z,9.57
2022-12-29T05:11:48.539Z,7.60
2022-12-29T05:13:55.774Z,8.38
2022-12-29T05:16:02.716Z,8.70
2022-12-29T05:18:10.193Z,7.97
2022-12-29T05:20:17.063Z,6.88
2022-12-29T05:22:24.653Z,5.97
2022-12-29T05:24:33.569Z,9.45
2022-12-29T05:26:40.962Z,8.40
2022-12-29T05:29:06.562Z,11.57
2022-12-29T05:31:13.979Z,7.97
2022-12-29T05:33:21.246Z,7.68
2022-12-29T05:35:30.429Z,11.05
2022-12-29T05:37:37.809Z,5.53
2022-12-29T05:39:46.837Z,5.75
2022-12-29T05:41:54.478Z,9.52
2022-12-29T05:44:27.973Z,6.53
2022-12-29T05:46:58.820Z,6.18
2022-12-29T05:49:41.323Z,7.63
2022-12-29T05:51:57.667Z,8.52
2022-12-29T05:54:04.652Z,7.78
2022-12-29T05:56:13.929Z,5.95
2022-12-29T06:00:43.036Z,6.85
2022-12-29T06:02:50.835Z,6.10
2022-12-29T06:04:58.627Z,7.90
2022-12-29T06:07:06.014Z,6.50
2022-12-29T06:09:21.848Z,7.80
2022-12-29T06:11:30.564Z,10.50
2022-12-29T06:13:39.544Z,7.05
2022-12-29T06:15:47.028Z,6.68
2022-12-29T06:17:54.412Z,6.20
2022-12-29T06:20:02.877Z,6.28
2022-12-29T06:22:12.876Z,9.80
2022-12-29T06:24:38.439Z,6.72
2022-12-29T06:26:47.474Z,5.75
2022-12-29T06:28:54.386Z,5.72
2022-12-29T06:31:04.186Z,5.45
2022-12-29T06:33:11.206Z,5.07
2022-12-29T06:35:18.601Z,6.70
2022-12-29T06:37:29.571Z,7.18
2022-12-29T06:39:36.909Z,6.38
2022-12-29T06:41:48.840Z,6.78
2022-12-29T06:44:16.046Z,8.68
2022-12-29T06:46:41.655Z,5.82
2022-12-29T06:48:49.000Z,6.22
2022-12-29T06:50:56.053Z,6.65
2022-12-29T06:53:03.001Z,6.80
2022-12-29T06:55:10.696Z,7.07
2022-12-29T06:57:19.457Z,8.07
2022-12-29T06:59:26.591Z,9.15
2022-12-29T07:01:34.044Z,6.88
2022-12-29T07:03:41.315Z,5.28
2022-12-29T07:05:48.388Z,7.03
2022-12-29T07:07:55.673Z,6.38
2022-12-29T07:12:29.228Z,6.32
2022-12-29T07:14:42.326Z,7.10
2022-12-29T07:17:04.542Z,5.80
2022-12-29T07:19:11.428Z,4.82
2022-12-29T07:21:18.751Z,6.90
2022-12-29T07:23:25.778Z,8.60
2022-12-29T07:25:33.268Z,7.00
2022-12-29T07:27:41.780Z,6.28
2022-12-29T07:29:49.013Z,6.32
2022-12-29T07:31:55.986Z,7.55
2022-12-29T07:34:03.223Z,8.35
2022-12-29T07:36:11.124Z,6.90
2022-12-29T07:38:18.457Z,6.82
2022-12-29T07:40:25.289Z,6.40
2022-12-29T07:42:32.426Z,7.60
2022-12-29T07:44:41.745Z,7.10
2022-12-29T07:47:07.409Z,7.70
2022-12-29T07:49:14.433Z,7.25
2022-12-29T07:51:21.668Z,8.93
2022-12-29T07:53:28.754Z,8.20
2022-12-29T07:55:35.878Z,6.10
2022-12-29T07:57:42.760Z,6.25
2022-12-29T07:59:51.874Z,6.10
2022-12-29T08:01:58.793Z,6.63
2022-12-29T08:04:06.351Z,6.55
2022-12-29T08:06:14.906Z,6.22
2022-12-29T08:08:22.559Z,7.80
2022-12-29T08:10:29.628Z,6.43
2022-12-29T08:12:36.964Z,5.68
2022-12-29T08:14:43.793Z,7.57
2022-12-29T08:16:52.682Z,9.57
2022-12-29T08:19:00.970Z,7.00
2022-12-29T08:21:08.716Z,7.05
2022-12-29T08:23:15.646Z,8.48
2022-12-29T08:25:23.278Z,7.72
2022-12-29T08:27:31.386Z,7.43
2022-12-29T08:29:38.461Z,8.63
2022-12-29T08:31:45.475Z,7.50
2022-12-29T08:33:57.177Z,6.30
2022-12-29T08:36:04.973Z,7.78
2022-12-29T08:38:13.333Z,6.55
2022-12-29T08:40:20.563Z,6.65
2022-12-29T08:42:30.920Z,7.68
2022-12-29T08:44:37.845Z,8.50
2022-12-29T08:46:45.231Z,8.90
2022-12-29T08:48:52.259Z,6.32
2022-12-29T08:51:01.350Z,5.50
2022-12-29T08:53:08.415Z,6.85
2022-12-29T08:55:15.975Z,6.93
2022-12-29T08:57:23.390Z,7.20
2022-12-29T08:59:54.384Z,7.35
2022-12-29T09:02:02.467Z,7.43
2022-12-29T09:04:17.922Z,10.90
2022-12-29T09:06:27.296Z,10.50
2022-12-29T09:08:36.882Z,14.80
2022-12-29T09:10:44.118Z,7.85
2022-12-29T09:12:50.989Z,10.35
2022-12-29T09:14:58.105Z,6.32
2022-12-29T09:17:21.331Z,5.38
2022-12-29T09:19:28.605Z,7.10
2022-12-29T09:21:37.329Z,10.77
2022-12-29T09:26:07.519Z,6.20
2022-12-29T09:28:14.645Z,8.68
2022-12-29T09:30:21.593Z,7.88
2022-12-29T09:32:33.433Z,6.50
2022-12-29T09:34:41.021Z,6.65
2022-12-29T09:36:49.978Z,10.15
2022-12-29T09:38:58.335Z,20.17
2022-12-29T09:41:10.125Z,20.75
2022-12-29T09:43:44.805Z,12.55
2022-12-29T09:45:59.254Z,6.30
2022-12-29T09:48:09.890Z,5.43
2022-12-29T09:50:25.564Z,11.67
2022-12-29T09:52:39.587Z,13.20
2022-12-29T09:55:00.517Z,11.00
2022-12-29T09:57:17.556Z,13.57
2022-12-29T09:59:28.561Z,8.00
2022-12-29T10:01:40.872Z,6.75
2022-12-29T10:03:51.692Z,7.70
2022-12-29T10:06:06.957Z,11.88
2022-12-29T10:08:31.657Z,6.07
2022-12-29T10:10:44.429Z,7.60
2022-12-29T10:13:12.035Z,8.85
2022-12-29T10:15:33.506Z,5.70
2022-12-29T10:17:48.103Z,5.18
2022-12-29T10:20:16.439Z,9.30
2022-12-29T10:22:35.083Z,8.45
2022-12-29T10:24:46.154Z,6.28
2022-12-29T10:26:55.586Z,7.50
2022-12-29T10:29:07.689Z,6.20
2022-12-29T10:31:22.152Z,6.60
2022-12-29T10:33:35.909Z,6.50
2022-12-29T10:35:45.256Z,8.38
2022-12-29T10:37:57.555Z,10.45
2022-12-29T10:40:23.273Z,10.07
2022-12-29T10:42:32.653Z,11.07
2022-12-29T10:44:40.040Z,10.07
2022-12-29T10:46:52.148Z,10.68
2022-12-29T10:48:59.526Z,10.27
2022-12-29T10:51:08.762Z,11.30
2022-12-29T10:53:23.221Z,12.77
2022-12-29T10:55:36.642Z,24.58
2022-12-29T10:57:47.705Z,23.15
2022-12-29T10:59:54.574Z,35.92
2022-12-29T11:02:15.742Z,37.97
2022-12-29T11:04:46.835Z,35.72
2022-12-29T11:06:54.534Z,30.60
2022-12-29T11:09:03.181Z,28.25
2022-12-29T11:11:13.960Z,28.63
2022-12-29T11:13:23.037Z,28.85
2022-12-29T11:15:30.583Z,22.02
2022-12-29T11:17:48.810Z,21.10
2022-12-29T11:19:55.895Z,26.38
2022-12-29T11:22:18.491Z,22.27
2022-12-29T11:24:28.234Z,18.17
2022-12-29T11:26:37.864Z,31.60
2022-12-29T11:28:46.127Z,25.52
2022-12-29T11:31:04.953Z,32.28
2022-12-29T11:33:13.751Z,48.88
2022-12-29T11:35:35.063Z,47.30
2022-12-29T11:37:44.500Z,66.80
2022-12-29T11:39:58.724Z,80.93
2022-12-29T11:42:11.510Z,67.13
2022-12-29T11:44:18.949Z,49.30
2022-12-29T11:46:29.531Z,36.95
2022-12-29T11:48:43.013Z,48.20
2022-12-29T11:50:57.983Z,41.92
2022-12-29T11:53:08.313Z,34.63
2022-12-29T11:55:24.544Z,39.20
2022-12-29T11:57:34.751Z,35.17
2022-12-29T11:59:53.299Z,33.20
2022-12-29T12:02:02.618Z,31.00
2022-12-29T12:04:14.031Z,26.80
2022-12-29T12:06:26.453Z,24.95
2022-12-29T12:08:39.963Z,19.02
2022-12-29T12:10:51.942Z,16.20
2022-12-29T12:13:10.489Z,12.68
2022-12-29T12:15:23.558Z,11.63
2022-12-29T12:17:41.239Z,12.68
2022-12-29T12:19:52.567Z,16.13
2022-12-29T12:22:05.105Z,14.63
2022-12-29T12:24:27.664Z,13.95
2022-12-29T12:26:39.451Z,13.88
2022-12-29T12:28:55.655Z,14.05
2022-12-29T12:31:03.600Z,11.05
2022-12-29T12:33:18.100Z,15.45
2022-12-29T12:35:35.779Z,24.10
2022-12-29T12:38:01.605Z,16.80
2022-12-29T12:40:31.203Z,12.93
2022-12-29T12:42:51.752Z,12.27
2022-12-29T12:45:24.377Z,11.93
2022-12-29T12:47:55.420Z,11.20
2022-12-29T12:50:44.478Z,15.35
2022-12-29T12:53:10.658Z,12.73
2022-12-29T12:55:38.325Z,11.45
2022-12-29T12:57:57.385Z,13.05
2022-12-29T13:00:12.655Z,12.80
2022-12-29T13:02:32.639Z,10.80
2022-12-29T13:05:02.701Z,11.25
2022-12-29T13:07:19.253Z,12.50
2022-12-29T13:09:42.919Z,12.75
2022-12-29T13:12:05.886Z,13.48
2022-12-29T13:14:25.396Z,11.00
2022-12-29T13:16:40.941Z,10.65
2022-12-29T13:18:56.348Z,9.25
2022-12-29T13:21:11.410Z,9.80
2022-12-29T13:23:27.865Z,12.20
2022-12-29T13:25:41.851Z,10.48
2022-12-29T13:27:56.303Z,13.20
2022-12-29T13:30:07.582Z,11.15
2022-12-29T13:32:29.306Z,10.60
2022-12-29T13:34:44.732Z,13.02
2022-12-29T13:36:56.673Z,10.27
2022-12-29T13:39:10.458Z,11.90
2022-12-29T13:41:22.308Z,13.02
2022-12-29T13:43:31.425Z,10.10
2022-12-29T13:45:40.124Z,12.43
2022-12-29T13:47:53.782Z,13.07
2022-12-29T13:50:04.436Z,12.32
2022-12-29T13:52:17.561Z,15.27
2022-12-29T13:54:33.451Z,17.33
2022-12-29T13:56:44.519Z,12.43
2022-12-29T13:58:58.183Z,16.75
2022-12-29T14:01:12.862Z,16.13
2022-12-29T14:03:47.682Z,16.40
2022-12-29T14:06:21.247Z,15.95
2022-12-29T14:08:28.345Z,12.68
2022-12-29T14:10:38.953Z,15.73
2022-12-29T14:12:47.446Z,18.48
2022-12-29T14:14:55.245Z,13.25
2022-12-29T14:17:15.577Z,12.73
2022-12-29T14:19:28.349Z,13.18
2022-12-29T14:21:37.162Z,13.80
2022-12-29T14:23:46.331Z,10.80
2022-12-29T14:26:17.697Z,13.00
2022-12-29T14:28:29.364Z,12.37
2022-12-29T14:31:03.580Z,9.95
2022-12-29T14:33:17.337Z,10.93
2022-12-29T14:35:47.808Z,10.90
2022-12-29T14:38:13.631Z,9.35
2022-12-29T14:40:24.173Z,9.57
2022-12-29T14:42:33.671Z,12.10
2022-12-29T14:44:52.073Z,9.38
2022-12-29T14:47:04.006Z,9.48
2022-12-29T14:49:21.585Z,10.60
2022-12-29T14:51:40.335Z,11.68
2022-12-29T14:53:50.619Z,9.07
2022-12-29T14:56:01.354Z,11.05
2022-12-29T14:58:13.916Z,7.65
2022-12-29T15:00:24.231Z,8.57
2022-12-29T15:02:40.343Z,11.23
2022-12-29T15:04:48.667Z,8.52
2022-12-29T15:06:58.469Z,9.50
2022-12-29T15:09:11.630Z,10.07
2022-12-29T15:11:22.099Z,8.60
2022-12-29T15:13:41.149Z,8.48
2022-12-29T15:15:48.642Z,8.80
2022-12-29T15:17:55.780Z,8.27
2022-12-29T15:20:05.067Z,7.82
2022-12-29T15:22:15.147Z,8.90
2022-12-29T15:24:22.644Z,10.93
2022-12-29T15:26:42.265Z,8.50
2022-12-29T15:28:50.506Z,9.38
2022-12-29T15:31:05.585Z,8.18
2022-12-29T15:33:22.800Z,10.75
2022-12-29T15:35:33.567Z,8.32
2022-12-29T15:37:42.652Z,9.27
2022-12-29T15:39:50.223Z,10.93
2022-12-29T15:42:04.383Z,8.35
2022-12-29T15:44:18.525Z,8.35
2022-12-29T15:46:25.782Z,9.48
2022-12-29T15:48:34.428Z,9.25
2022-12-29T15:50:45.048Z,7.72
2022-12-29T15:52:54.215Z,8.20
2022-12-29T15:55:02.161Z,10.05
2022-12-29T15:57:19.279Z,10.98
2022-12-29T15:59:31.026Z,8.80
2022-12-29T16:01:40.354Z,10.38
2022-12-29T16:03:49.336Z,12.40
2022-12-29T16:05:58.499Z,10.32
2022-12-29T16:08:08.549Z,13.88
2022-12-29T16:10:32.220Z,8.43
2022-12-29T16:12:40.873Z,9.45
2022-12-29T16:17:14.639Z,9.38
2022-12-29T16:19:26.645Z,10.75
2022-12-29T16:21:37.107Z,12.32
2022-12-29T16:23:51.588Z,8.13
2022-12-29T16:26:00.493Z,9.88
2022-12-29T16:28:18.311Z,10.65
2022-12-29T16:30:33.097Z,8.98
2022-12-29T16:32:51.317Z,8.35
2022-12-29T16:35:14.818Z,9.55
2022-12-29T16:37:34.196Z,12.50
2022-12-29T16:39:43.675Z,10.05
2022-12-29T16:41:50.560Z,10.38
2022-12-29T16:44:17.145Z,10.73
2022-12-29T16:46:30.973Z,8.98
2022-12-29T16:48:40.463Z,11.40
2022-12-29T16:50:48.617Z,11.98
2022-12-29T16:52:55.864Z,9.02
2022-12-29T16:55:05.283Z,9.13
2022-12-29T16:57:13.184Z,10.23
2022-12-29T16:59:35.390Z,12.40
2022-12-29T17:04:14.274Z,10.85
2022-12-29T17:06:22.381Z,9.73
2022-12-29T17:08:29.384Z,10.70
2022-12-29T17:10:51.517Z,13.23
2022-12-29T17:12:58.353Z,11.80
2022-12-29T17:15:10.334Z,10.80
2022-12-29T17:17:22.051Z,15.73
2022-12-29T17:21:37.945Z,14.98
2022-12-29T17:23:45.282Z,10.50
2022-12-29T17:25:53.870Z,10.77
2022-12-29T17:28:03.566Z,11.57
2022-12-29T17:30:16.272Z,15.35
2022-12-29T17:32:25.046Z,17.60
2022-12-29T17:34:37.153Z,17.00
2022-12-29T17:36:44.254Z,12.88
2022-12-29T17:38:51.174Z,14.57
2022-12-29T17:41:00.118Z,12.93
2022-12-29T17:43:06.860Z,13.02
2022-12-29T17:45:18.575Z,10.95
2022-12-29T17:47:25.707Z,11.38
2022-12-29T17:49:35.137Z,13.15
2022-12-29T17:51:43.297Z,12.40
2022-12-29T17:53:51.349Z,11.75
2022-12-29T17:56:01.196Z,12.18
2022-12-29T17:58:20.617Z,12.00
2022-12-29T18:00:29.021Z,12.63
2022-12-29T18:02:36.498Z,10.10
2022-12-29T18:04:43.485Z,10.35
2022-12-29T18:06:51.013Z,10.02
2022-12-29T18:08:57.899Z,10.18
2022-12-29T18:11:06.891Z,9.77
2022-12-29T18:13:22.994Z,10.32
2022-12-29T18:15:32.452Z,11.48
2022-12-29T18:17:39.272Z,12.85
2022-12-29T18:19:46.455Z,8.98
2022-12-29T18:21:53.381Z,9.95
2022-12-29T18:24:00.665Z,10.25
2022-12-29T18:26:17.133Z,9.32
2022-12-29T18:28:27.623Z,10.77
2022-12-29T18:30:34.549Z,9.18
2022-12-29T18:32:41.729Z,9.85
2022-12-29T18:34:49.377Z,8.43
2022-12-29T18:36:56.759Z,10.95
2022-12-29T18:39:03.687Z,9.65
2022-12-29T18:41:19.159Z,9.43
2022-12-29T18:43:26.393Z,8.40
2022-12-29T18:45:36.044Z,9.50
2022-12-29T18:47:42.910Z,10.65
2022-12-29T18:49:50.089Z,8.40
2022-12-29T18:51:57.116Z,10.02
2022-12-29T18:54:05.374Z,9.45
2022-12-29T18:56:14.272Z,9.38
2022-12-29T18:58:21.990Z,10.68
2022-12-29T19:00:29.132Z,8.77
2022-12-29T19:02:36.405Z,9.50
2022-12-29T19:04:43.329Z,9.13
2022-12-29T19:06:50.416Z,11.40
2022-12-29T19:08:57.333Z,9.60
2022-12-29T19:11:04.786Z,9.57
2022-12-29T19:13:18.935Z,9.10
2022-12-29T19:15:28.362Z,7.60
2022-12-29T19:17:35.328Z,10.93
2022-12-29T19:19:42.561Z,10.48
2022-12-29T19:21:49.588Z,7.30
2022-12-29T19:23:56.853Z,9.25
2022-12-29T19:26:03.752Z,9.90
2022-12-29T19:28:18.421Z,10.70
2022-12-29T19:30:25.789Z,10.07
2022-12-29T19:32:33.073Z,9.65
2022-12-29T19:34:40.159Z,9.35
2022-12-29T19:36:47.999Z,9.82
2022-12-29T19:38:54.976Z,9.88
2022-12-29T19:41:02.263Z,10.82
2022-12-29T19:43:09.085Z,9.80
2022-12-29T19:45:18.735Z,9.73
2022-12-29T19:47:30.074Z,13.40
2022-12-29T19:49:39.286Z,9.07
2022-12-29T19:51:46.104Z,10.10
2022-12-29T19:53:53.392Z,11.05
2022-12-29T19:56:00.367Z,11.10
2022-12-29T19:58:07.548Z,11.00
2022-12-29T20:00:17.750Z,14.57
2022-12-29T20:02:27.162Z,12.25
2022-12-29T20:04:34.369Z,11.60
2022-12-29T20:06:41.607Z,10.57
2022-12-29T20:08:48.644Z,11.55
2022-12-29T20:11:02.168Z,11.15
2022-12-29T20:13:09.440Z,10.38
2022-12-29T20:15:18.673Z,9.35
2022-12-29T20:17:45.715Z,11.95
2022-12-29T20:19:53.313Z,10.73
2022-12-29T20:22:00.159Z,12.35
2022-12-29T20:24:07.467Z,14.18
2022-12-29T20:26:18.028Z,11.27
2022-12-29T20:28:25.365Z,11.82
2022-12-29T20:30:33.916Z,10.63
2022-12-29T20:32:41.268Z,12.77
2022-12-29T20:34:48.750Z,11.30
2022-12-29T20:36:55.933Z,13.57
2022-12-29T20:39:04.037Z,12.38
2022-12-29T20:41:11.541Z,14.48
2022-12-29T20:43:19.628Z,13.50
2022-12-29T20:45:27.236Z,13.13
2022-12-29T20:47:35.888Z,12.68
2022-12-29T20:49:43.066Z,12.50
2022-12-29T20:52:07.016Z,12.57
2022-12-29T20:54:14.836Z,13.95
2022-12-29T20:56:23.710Z,13.45
2022-12-29T20:58:30.839Z,12.48
2022-12-29T21:00:37.765Z,13.20
2022-12-29T21:02:46.717Z,11.65
2022-12-29T21:07:20.818Z,11.32
2022-12-29T21:09:27.701Z,11.45
2022-12-29T21:11:34.870Z,13.27
2022-12-29T21:13:41.847Z,12.55
2022-12-29T21:15:49.694Z,12.27
2022-12-29T21:17:58.462Z,10.77
2022-12-29T21:20:06.260Z,12.07
2022-12-29T21:22:13.387Z,14.80
2022-12-29T21:24:20.828Z,17.65
2022-12-29T21:26:28.370Z,13.52
2022-12-29T21:28:35.222Z,14.52
2022-12-29T21:30:42.853Z,12.82
2022-12-29T21:32:50.015Z,16.63
2022-12-29T21:34:59.218Z,15.40
2022-12-29T21:37:06.122Z,16.73
2022-12-29T21:39:13.872Z,18.50
2022-12-29T21:41:21.299Z,17.20
2022-12-29T21:43:28.430Z,17.80
2022-12-29T21:45:35.168Z,24.83
2022-12-29T21:47:58.767Z,17.30
2022-12-29T21:50:07.637Z,15.68
2022-12-29T21:52:14.820Z,14.40
2022-12-29T21:54:38.848Z,17.85
2022-12-29T21:56:47.465Z,14.80
2022-12-29T21:59:11.948Z,15.70
2022-12-29T22:01:35.531Z,15.95
2022-12-29T22:03:59.548Z,15.52
2022-12-29T22:06:29.819Z,16.13
2022-12-29T22:08:53.429Z,17.08
2022-12-29T22:11:17.305Z,16.25
2022-12-29T22:13:24.181Z,19.45
2022-12-29T22:15:32.475Z,18.73
2022-12-29T22:17:42.434Z,20.25
2022-12-29T22:19:53.815Z,21.42
2022-12-29T22:22:02.530Z,22.00
2022-12-29T22:24:11.299Z,23.60
2022-12-29T22:26:19.163Z,23.00
2022-12-29T22:28:26.694Z,24.30
2022-12-29T22:30:33.663Z,24.33
2022-12-29T22:32:40.925Z,26.42
2022-12-29T22:34:47.777Z,26.63
2022-12-29T22:36:54.900Z,30.40
2022-12-29T22:39:03.674Z,29.73
2022-12-29T22:41:10.798Z,28.42
2022-12-29T22:43:17.673Z,27.73
2022-12-29T22:45:24.955Z,25.55
2022-12-29T22:47:31.883Z,24.58
2022-12-29T22:49:39.065Z,25.30
2022-12-29T22:51:46.092Z,22.33
2022-12-29T22:53:53.599Z,24.17
2022-12-29T22:56:08.605Z,20.38
2022-12-29T22:58:15.777Z,24.63
2022-12-29T23:00:22.708Z,21.67
2022-12-29T23:02:31.432Z,22.05
2022-12-29T23:07:05.648Z,20.60
2022-12-29T23:09:14.368Z,22.02
2022-12-29T23:11:23.038Z,20.25
2022-12-29T23:13:29.982Z,20.60
2022-12-29T23:15:37.268Z,22.75
2022-12-29T23:17:44.172Z,20.63
2022-12-29T23:19:51.403Z,19.02
2022-12-29T23:21:58.380Z,17.65
2022-12-29T23:24:08.784Z,19.60
2022-12-29T23:26:16.292Z,19.63
2022-12-29T23:28:24.837Z,19.77
2022-12-29T23:30:32.192Z,19.13
2022-12-29T23:32:39.098Z,20.70
2022-12-29T23:34:46.190Z,19.67
2022-12-29T23:36:53.720Z,20.02
2022-12-29T23:39:00.851Z,20.60
2022-12-29T23:41:08.082Z,17.38
2022-12-29T23:43:15.213Z,20.35
2022-12-29T23:45:23.927Z,22.20
2022-12-29T23:47:31.162Z,22.98
2022-12-29T23:49:38.031Z,23.25
2022-12-29T23:51:45.228Z,22.42
2022-12-29T23:53:52.346Z,23.30
2022-12-29T23:55:59.792Z,26.08
2022-12-29T23:58:06.762Z,27.15
